Time;durP1;ratioP1;P1;durP2;ratioP2;P2;SDS_P1;SDS_P2;PMS_P1;PMS_P2;Temp;Humidity;BMP_temperature;BMP_pressure;BME280_temperature;BME280_humidity;BME280_pressure;Samples;Min_cycle;Max_cycle;Signal;HPM_P1;HPM_P2
2023/10/22 00:00:10;;;;;;;7.90;4.42;;;;;;;19.86;51.04;100134.59;1730146;82;21348;-82
2023/10/22 00:03:16;;;;;;;10.20;4.47;;;;;;;19.73;51.35;100136.22;1733486;82;21280;-82
2023/10/22 00:06:22;;;;;;;9.15;4.10;;;;;;;19.31;52.28;100134.86;1738009;82;21339;-82
2023/10/22 00:09:28;;;;;;;13.43;3.72;;;;;;;19.77;51.30;100144.36;1721856;82;21858;-83
2023/10/22 00:12:32;;;;;;;15.80;4.65;;;;;;;19.48;51.82;100146.08;1719165;83;21980;-82
2023/10/22 00:15:38;;;;;;;7.92;4.37;;;;;;;19.57;51.79;100138.59;1728478;82;21669;-82
2023/10/22 00:18:44;;;;;;;7.20;4.33;;;;;;;19.50;51.80;100151.71;1733948;82;21909;-82
2023/10/22 00:21:50;;;;;;;17.35;4.35;;;;;;;19.50;51.81;100152.25;1734109;82;21296;-82
2023/10/22 00:24:56;;;;;;;9.98;5.03;;;;;;;19.54;51.63;100157.09;1734003;82;21319;-81
2023/10/22 00:28:02;;;;;;;11.18;5.33;;;;;;;19.37;51.91;100151.92;1733881;82;21288;-82
2023/10/22 00:31:08;;;;;;;14.28;4.70;;;;;;;19.50;51.67;100153.64;1702043;82;21309;-82
2023/10/22 00:34:14;;;;;;;10.68;5.20;;;;;;;19.41;51.83;100156.75;1700892;84;21336;-82
2023/10/22 00:37:20;;;;;;;11.28;5.05;;;;;;;19.50;51.63;100160.03;1717735;83;21289;-80
2023/10/22 00:40:26;;;;;;;8.08;4.75;;;;;;;19.42;51.78;100168.69;1735193;82;22305;-82
2023/10/22 00:43:30;;;;;;;18.12;6.08;;;;;;;19.54;51.63;100168.73;1724002;83;21358;-82
2023/10/22 00:46:35;;;;;;;12.30;5.87;;;;;;;19.61;51.42;100170.33;1725309;82;21324;-82
2023/10/22 00:49:40;;;;;;;15.03;6.33;;;;;;;19.23;52.26;100169.84;1733647;82;21328;-82
2023/10/22 00:52:46;;;;;;;15.45;6.05;;;;;;;19.32;52.08;100173.98;1733756;82;21304;-82
2023/10/22 00:55:52;;;;;;;13.85;6.53;;;;;;;19.40;52.04;100176.41;1739367;82;21283;-81
2023/10/22 00:58:57;;;;;;;12.50;7.10;;;;;;;19.39;51.93;100179.73;1738354;82;21347;-82
2023/10/22 01:02:02;;;;;;;14.93;6.20;;;;;;;19.32;52.23;100179.52;1700161;84;21322;-81
2023/10/22 01:05:08;;;;;;;16.95;7.33;;;;;;;19.18;52.30;100171.94;1700452;84;21587;-82
2023/10/22 01:08:13;;;;;;;15.32;6.33;;;;;;;19.30;52.37;100183.09;1700824;84;21363;-81
2023/10/22 01:11:19;;;;;;;17.87;7.28;;;;;;;19.33;52.02;100188.98;1701162;84;21326;-82
2023/10/22 01:14:25;;;;;;;12.47;7.35;;;;;;;19.33;52.06;100184.82;1700118;84;21324;-84
2023/10/22 01:17:31;;;;;;;16.55;7.47;;;;;;;19.36;51.88;100187.13;1698034;84;21304;-82
2023/10/22 01:20:37;;;;;;;17.52;6.60;;;;;;;19.45;51.79;100191.80;1733938;81;21850;-82
2023/10/22 01:23:44;;;;;;;16.25;7.37;;;;;;;19.50;51.52;100192.48;1741705;82;21285;-82
2023/10/22 01:26:50;;;;;;;17.30;6.50;;;;;;;18.95;53.04;100196.80;1741813;81;21337;-83
2023/10/22 01:29:56;;;;;;;15.75;6.55;;;;;;;19.17;52.24;100197.14;1750530;81;21311;-82
2023/10/22 01:33:02;;;;;;;18.75;7.15;;;;;;;19.29;51.99;100201.66;1727389;83;21326;-82
2023/10/22 01:36:08;;;;;;;22.50;7.42;;;;;;;19.22;52.18;100202.83;1692581;84;22236;-84
2023/10/22 01:39:14;;;;;;;15.05;6.50;;;;;;;19.51;51.54;100196.94;1691148;84;21351;-82
2023/10/22 01:42:20;;;;;;;10.98;5.80;;;;;;;19.70;50.87;100201.89;1726158;83;21312;-82
2023/10/22 01:45:26;;;;;;;14.47;6.78;;;;;;;19.32;51.66;100204.48;1740898;81;21312;-83
2023/10/22 01:48:31;;;;;;;11.43;6.33;;;;;;;19.31;51.70;100204.18;1690759;84;21337;-84
2023/10/22 01:51:37;;;;;;;21.33;7.08;;;;;;;19.06;52.33;100203.80;1691269;84;21802;-82
2023/10/22 01:54:42;;;;;;;15.80;7.00;;;;;;;18.68;53.29;100205.44;1691883;84;21288;-82
2023/10/22 01:57:48;;;;;;;15.93;6.58;;;;;;;18.76;53.10;100211.22;1725930;83;21872;-82
2023/10/22 02:00:54;;;;;;;14.43;6.60;;;;;;;18.58;53.65;100211.53;1729527;81;21956;-82
2023/10/22 02:04:01;;;;;;;24.05;7.45;;;;;;;18.58;53.62;100206.50;1761455;81;22276;-82
2023/10/22 02:07:06;;;;;;;12.35;7.28;;;;;;;18.44;54.02;100205.80;1734878;81;21339;-81
2023/10/22 02:10:12;;;;;;;14.68;7.45;;;;;;;18.64;53.56;100198.67;1719960;83;21296;-83
2023/10/22 02:13:19;;;;;;;14.85;7.08;;;;;;;18.72;53.26;100209.45;1721327;83;21356;-82
2023/10/22 02:16:25;;;;;;;11.95;6.40;;;;;;;18.68;53.30;100204.56;1690235;83;21333;-81
2023/10/22 02:19:31;;;;;;;20.72;7.37;;;;;;;18.62;53.45;100197.49;1730953;83;21370;-82
2023/10/22 02:22:37;;;;;;;13.20;6.90;;;;;;;18.70;53.52;100203.84;1731099;82;21331;-82
2023/10/22 02:25:43;;;;;;;17.27;7.33;;;;;;;18.78;53.47;100207.16;1730785;83;21313;-80
2023/10/22 02:28:49;;;;;;;19.90;7.85;;;;;;;19.08;52.71;100202.16;1731054;83;21280;-83
2023/10/22 02:31:55;;;;;;;17.37;7.80;;;;;;;19.02;52.87;100203.95;1769550;81;21319;-81
2023/10/22 02:35:00;;;;;;;21.77;8.33;;;;;;;18.90;53.24;100203.04;1761452;81;22369;-82
2023/10/22 02:38:07;;;;;;;20.52;9.45;;;;;;;19.14;52.88;100208.14;1769480;81;21327;-82
2023/10/22 02:41:13;;;;;;;27.67;11.57;;;;;;;19.13;52.86;100216.16;1770249;81;21944;-82
2023/10/22 02:44:19;;;;;;;29.80;10.80;;;;;;;19.15;52.96;100212.09;1733403;82;21358;-83
2023/10/22 02:47:24;;;;;;;25.57;10.28;;;;;;;18.82;53.88;100208.89;1729140;83;21301;-82
2023/10/22 02:50:31;;;;;;;24.67;9.60;;;;;;;18.54;54.70;100207.52;1728718;83;21315;-83
2023/10/22 02:53:38;;;;;;;24.90;10.98;;;;;;;19.21;53.20;100215.84;1731190;82;21332;-82
2023/10/22 02:56:44;;;;;;;24.57;11.30;;;;;;;19.13;53.46;100210.63;1728722;82;21292;-82
2023/10/22 02:59:50;;;;;;;24.27;11.80;;;;;;;18.55;54.90;100208.37;1720985;83;21851;-82
2023/10/22 03:02:56;;;;;;;31.42;11.83;;;;;;;18.85;54.64;100208.44;1746607;80;21284;-83
2023/10/22 03:06:03;;;;;;;24.37;11.75;;;;;;;18.95;54.54;100207.88;1697416;83;21324;-81
2023/10/22 03:09:08;;;;;;;23.30;11.03;;;;;;;19.10;54.21;100205.53;1663616;85;21960;-81
2023/10/22 03:12:15;;;;;;;34.90;12.50;;;;;;;18.89;55.17;100204.13;1723529;82;21932;-83
2023/10/22 03:15:21;;;;;;;27.67;11.22;;;;;;;18.89;55.24;100211.05;1695617;83;21292;-83
2023/10/22 03:18:27;;;;;;;28.40;10.72;;;;;;;18.85;55.20;100207.05;1762770;81;21311;-83
2023/10/22 03:21:35;;;;;;;27.40;10.80;;;;;;;19.18;54.92;100202.98;1761998;81;21350;-83
2023/10/22 03:24:40;;;;;;;26.93;11.15;;;;;;;18.75;55.92;100207.61;1724455;82;21309;-82
2023/10/22 03:27:47;;;;;;;35.80;12.23;;;;;;;19.09;55.27;100206.63;1724683;83;21304;-83
2023/10/22 03:30:52;;;;;;;26.20;13.10;;;;;;;19.10;55.37;100210.56;1723221;83;21861;-82
2023/10/22 03:33:58;;;;;;;30.55;12.82;;;;;;;19.34;54.73;100202.34;1721464;83;21830;-82
2023/10/22 03:37:08;;;;;;;26.02;11.85;;;;;;;19.13;55.51;100203.14;1694954;83;21865;-82
2023/10/22 03:40:14;;;;;;;27.05;11.80;;;;;;;18.61;56.81;100211.05;1674253;85;21365;-82
2023/10/22 03:43:18;;;;;;;34.20;13.90;;;;;;;18.82;57.01;100208.89;1667779;84;21866;-82
2023/10/22 03:46:24;;;;;;;34.63;14.25;;;;;;;19.07;56.39;100208.80;1665844;85;21682;-82
2023/10/22 03:49:30;;;;;;;29.45;12.90;;;;;;;19.02;56.47;100213.66;1732473;83;22209;-81
2023/10/22 03:52:36;;;;;;;31.05;13.45;;;;;;;19.15;56.46;100221.80;1756296;81;21311;-82
2023/10/22 03:55:44;;;;;;;30.88;12.47;;;;;;;19.14;56.75;100225.62;1725719;83;21347;-82
2023/10/22 03:58:49;;;;;;;27.85;13.80;;;;;;;19.31;56.29;100222.20;1762498;81;21300;-83
2023/10/22 04:01:55;;;;;;;32.15;12.43;;;;;;;19.30;56.50;100221.91;1724750;82;21910;-83
2023/10/22 04:04:55;;;;;;;25.85;11.12;;;;;;;19.44;56.31;100235.04;1752779;81;21304;-82
2023/10/22 04:08:03;;;;;;;30.88;12.35;;;;;;;19.48;56.27;100239.88;1796133;80;21273;-82
2023/10/22 04:11:08;;;;;;;28.32;12.25;;;;;;;19.12;57.61;100241.66;1784651;80;21307;-83
2023/10/22 04:14:14;;;;;;;26.35;12.80;;;;;;;19.45;56.78;100232.02;1790470;80;21277;-83
2023/10/22 04:17:20;;;;;;;31.80;13.62;;;;;;;19.47;56.67;100239.55;1716658;83;21578;-82
2023/10/22 04:20:26;;;;;;;28.10;13.32;;;;;;;19.49;56.72;100237.95;1731460;82;21318;-82
2023/10/22 04:23:32;;;;;;;26.10;12.15;;;;;;;19.63;56.57;100247.79;1734069;82;21306;-82
2023/10/22 04:26:37;;;;;;;24.95;11.75;;;;;;;19.22;57.98;100245.80;1737271;81;21830;-84
2023/10/22 04:29:46;;;;;;;27.13;12.85;;;;;;;19.46;57.47;100246.19;1747952;82;21843;-84
2023/10/22 04:32:51;;;;;;;29.72;13.00;;;;;;;19.49;57.24;100251.81;1747942;82;21269;-83
2023/10/22 04:35:58;;;;;;;31.12;13.32;;;;;;;19.75;56.69;100256.97;1747741;82;21328;-84
2023/10/22 04:39:03;;;;;;;30.27;13.43;;;;;;;19.76;56.78;100255.03;1748250;82;21258;-83
2023/10/22 04:42:03;;;;;;;30.77;12.88;;;;;;;19.91;56.60;100269.33;1747218;82;21755;-83
2023/10/22 04:44:55;;;;;;;24.43;12.47;;;;;;;19.88;56.51;100270.64;1751028;80;21273;-83
2023/10/22 04:48:04;;;;;;;31.30;13.05;;;;;;;19.89;56.72;100267.31;1787129;80;21319;-83
2023/10/22 04:51:13;;;;;;;31.05;14.60;;;;;;;20.00;56.50;100285.09;1770623;81;21203;-82
2023/10/22 04:54:18;;;;;;;34.05;14.65;;;;;;;19.88;56.85;100289.22;1758438;81;21295;-82
2023/10/22 04:57:24;;;;;;;25.82;13.13;;;;;;;19.79;57.02;100290.65;1761577;81;21322;-82
2023/10/22 05:00:31;;;;;;;26.02;13.53;;;;;;;19.68;57.67;100291.47;1758507;81;21336;-82
2023/10/22 05:03:37;;;;;;;30.65;14.55;;;;;;;19.54;58.07;100293.56;1746853;81;21984;-82
2023/10/22 05:06:36;;;;;;;34.27;14.28;;;;;;;19.69;57.59;100291.23;1746831;81;21307;-82
2023/10/22 05:09:29;;;;;;;37.35;15.05;;;;;;;19.71;57.72;100295.14;1734213;82;21300;-81
2023/10/22 05:12:35;;;;;;;32.78;13.80;;;;;;;19.69;57.99;100308.42;1731671;83;21344;-82
2023/10/22 05:15:41;;;;;;;36.10;13.32;;;;;;;19.77;57.77;100313.09;1719285;82;21926;-82
2023/10/22 05:18:47;;;;;;;30.82;13.45;;;;;;;20.00;57.15;100319.80;1751411;81;21317;-82
2023/10/22 05:21:53;;;;;;;26.17;12.15;;;;;;;20.13;56.78;100314.00;1784657;79;21284;-82
2023/10/22 05:24:58;;;;;;;30.10;12.73;;;;;;;20.04;57.15;100321.86;1790038;80;21304;-82
2023/10/22 05:28:05;;;;;;;27.62;13.03;;;;;;;20.23;56.64;100318.97;1790448;80;21268;-82
2023/10/22 05:31:19;;;;;;;35.50;14.15;;;;;;;20.28;56.36;100327.42;1790405;80;21300;-83
2023/10/22 05:34:26;;;;;;;27.02;13.38;;;;;;;20.48;55.95;100327.98;1782089;80;21292;-83
2023/10/22 05:37:31;;;;;;;30.65;12.75;;;;;;;20.35;56.44;100326.78;1749058;80;21290;-82
2023/10/22 05:40:38;;;;;;;24.30;12.35;;;;;;;20.11;57.15;100327.30;1739664;82;21264;-82
2023/10/22 05:43:46;;;;;;;27.45;11.68;;;;;;;19.89;57.81;100321.44;1738530;82;21335;-82
2023/10/22 05:46:53;;;;;;;26.60;11.90;;;;;;;20.10;57.21;100320.06;1774000;80;21292;-83
2023/10/22 05:49:59;;;;;;;27.30;12.05;;;;;;;20.08;57.11;100320.27;1781769;80;21304;-82
2023/10/22 05:53:04;;;;;;;33.00;12.33;;;;;;;19.81;57.84;100311.55;1731532;83;21292;-81
2023/10/22 05:56:09;;;;;;;29.50;13.00;;;;;;;20.02;57.38;100318.47;1732341;82;21894;-82
2023/10/22 05:59:16;;;;;;;30.10;12.93;;;;;;;19.89;57.61;100314.50;1732529;83;21328;-84
2023/10/22 06:02:21;;;;;;;25.30;11.97;;;;;;;20.23;56.82;100316.19;1754815;81;21336;-82
2023/10/22 06:05:28;;;;;;;31.95;12.60;;;;;;;20.13;56.99;100313.46;1757214;80;21283;-81
2023/10/22 06:08:33;;;;;;;32.60;13.08;;;;;;;19.78;58.13;100307.84;1764093;81;21257;-82
2023/10/22 06:11:39;;;;;;;30.50;13.72;;;;;;;19.88;57.90;100312.81;1764075;81;21296;-83
2023/10/22 06:14:46;;;;;;;27.15;12.15;;;;;;;19.61;58.70;100310.43;1758493;81;21260;-82
2023/10/22 06:17:52;;;;;;;29.45;12.50;;;;;;;20.20;57.10;100313.91;1756354;81;21328;-82
2023/10/22 06:20:58;;;;;;;28.67;13.18;;;;;;;20.04;57.37;100323.25;1742780;80;21816;-82
2023/10/22 06:24:03;;;;;;;32.75;13.25;;;;;;;20.00;57.41;100326.20;1773213;80;22348;-82
2023/10/22 06:27:09;;;;;;;39.63;13.78;;;;;;;20.25;57.01;100319.59;1768386;81;21920;-83
2023/10/22 06:30:21;;;;;;;33.15;13.25;;;;;;;20.44;56.54;100325.34;1772707;79;21264;-83
2023/10/22 06:33:24;;;;;;;31.30;13.08;;;;;;;20.34;56.35;100320.39;1792612;80;21296;-83
2023/10/22 06:36:31;;;;;;;30.12;12.63;;;;;;;20.53;55.83;100324.48;1770770;80;22162;-83
2023/10/22 06:39:37;;;;;;;29.37;13.80;;;;;;;20.50;56.05;100327.73;1777781;80;21276;-83
2023/10/22 06:42:43;;;;;;;32.42;13.13;;;;;;;20.65;55.83;100325.30;1768097;81;21280;-82
2023/10/22 06:45:48;;;;;;;35.92;14.38;;;;;;;20.61;55.78;100327.74;1766821;80;21288;-83
2023/10/22 06:48:54;;;;;;;32.88;13.88;;;;;;;21.10;54.42;100333.84;1768024;81;21307;-82
2023/10/22 06:52:00;;;;;;;34.08;15.65;;;;;;;20.91;54.79;100333.14;1782283;79;21312;-83
2023/10/22 06:55:05;;;;;;;41.30;18.62;;;;;;;20.82;55.37;100328.20;1791972;80;21296;-83
2023/10/22 06:58:04;;;;;;;45.80;19.10;;;;;;;21.05;54.65;100318.98;1793108;80;21747;-83
2023/10/22 07:01:18;;;;;;;41.75;18.85;;;;;;;21.00;54.85;100328.61;1795504;79;21307;-83
2023/10/22 07:04:21;;;;;;;48.65;19.37;;;;;;;21.13;54.63;100326.41;1800418;79;21300;-83
2023/10/22 07:07:24;;;;;;;51.90;21.50;;;;;;;21.10;54.61;100325.50;1795778;79;21323;-83
2023/10/22 07:10:30;;;;;;;54.93;23.92;;;;;;;20.87;55.26;100322.76;1768795;79;21666;-82
2023/10/22 07:13:35;;;;;;;52.13;21.73;;;;;;;21.15;54.56;100326.16;1728907;83;21838;-83
2023/10/22 07:16:40;;;;;;;37.58;16.17;;;;;;;21.30;54.36;100322.84;1752371;81;21335;-82
2023/10/22 07:19:47;;;;;;;38.45;16.67;;;;;;;21.38;54.23;100326.12;1799563;79;22221;-83
2023/10/22 07:22:53;;;;;;;33.40;16.50;;;;;;;21.31;54.59;100330.96;1792140;79;21355;-82
2023/10/22 07:26:04;;;;;;;43.70;15.85;;;;;;;21.29;54.39;100325.33;1747083;82;21296;-83
2023/10/22 07:29:09;;;;;;;40.28;17.37;;;;;;;21.31;54.50;100326.79;1752454;82;21285;-82
2023/10/22 07:32:14;;;;;;;60.25;26.85;;;;;;;21.24;54.80;100337.20;1786776;79;21319;-82
2023/10/22 07:35:20;;;;;;;76.87;32.80;;;;;;;21.36;54.13;100335.78;1790592;80;21257;-82
2023/10/22 07:38:29;;;;;;;97.33;42.67;;;;;;;21.57;53.74;100333.73;1791710;79;21261;-81
2023/10/22 07:41:34;;;;;;;87.62;42.23;;;;;;;21.54;53.96;100332.83;1801057;79;21288;-82
2023/10/22 07:44:40;;;;;;;96.55;47.27;;;;;;;21.56;54.00;100323.70;1801089;79;21747;-83
2023/10/22 07:47:46;;;;;;;75.35;35.45;;;;;;;21.32;54.68;100325.72;1757709;81;21800;-83
2023/10/22 07:50:52;;;;;;;70.03;33.10;;;;;;;21.17;55.07;100332.30;1797738;79;21745;-82
2023/10/22 07:53:57;;;;;;;85.38;39.73;;;;;;;21.47;54.37;100328.52;1785263;79;21297;-82
2023/10/22 07:57:02;;;;;;;80.80;40.65;;;;;;;21.50;53.98;100327.48;1756690;81;21331;-82
2023/10/22 08:00:08;;;;;;;95.90;44.48;;;;;;;21.54;54.33;100323.08;1757212;81;21292;-82
2023/10/22 08:03:14;;;;;;;59.23;31.95;;;;;;;21.40;54.85;100324.47;1783679;80;21272;-83
2023/10/22 08:06:20;;;;;;;63.55;32.93;;;;;;;21.42;54.83;100327.87;1788021;80;21267;-83
2023/10/22 08:09:25;;;;;;;69.77;31.82;;;;;;;21.53;54.55;100327.52;1794427;79;21320;-82
2023/10/22 08:12:31;;;;;;;64.75;32.93;;;;;;;21.37;54.98;100327.22;1791253;79;21315;-82
2023/10/22 08:15:37;;;;;;;63.95;30.57;;;;;;;21.02;56.00;100331.43;1782260;80;21775;-83
2023/10/22 08:18:44;;;;;;;59.88;27.93;;;;;;;21.11;55.73;100338.30;1791488;80;21303;-82
2023/10/22 08:21:51;;;;;;;59.60;29.18;;;;;;;21.59;54.47;100339.03;1792915;80;21318;-82
2023/10/22 08:24:56;;;;;;;56.40;25.45;;;;;;;21.77;54.16;100340.78;1795945;79;21935;-82
2023/10/22 08:28:02;;;;;;;52.93;23.70;;;;;;;21.68;54.21;100338.94;1789121;80;21299;-83
2023/10/22 08:31:08;;;;;;;53.00;25.00;;;;;;;21.71;54.60;100335.67;1772711;80;21348;-82
2023/10/22 08:34:13;;;;;;;47.55;22.05;;;;;;;21.83;54.26;100336.47;1761824;81;21299;-82
2023/10/22 08:37:20;;;;;;;38.15;17.48;;;;;;;21.73;54.69;100330.69;1767799;81;21798;-83
2023/10/22 08:40:24;;;;;;;31.60;14.58;;;;;;;21.98;53.98;100328.94;1766097;81;21264;-82
2023/10/22 08:43:32;;;;;;;23.60;11.53;;;;;;;22.07;53.65;100329.38;1766087;81;21889;-83
2023/10/22 08:46:39;;;;;;;23.27;10.50;;;;;;;22.18;53.34;100319.57;1766655;79;21327;-83
2023/10/22 08:49:46;;;;;;;24.92;12.15;;;;;;;22.21;53.61;100318.23;1751225;81;22182;-83
2023/10/22 08:52:53;;;;;;;19.05;10.13;;;;;;;22.03;54.10;100317.05;1792100;80;21303;-83
2023/10/22 08:55:59;;;;;;;19.37;10.15;;;;;;;22.19;53.67;100314.28;1752376;82;21312;-83
2023/10/22 08:59:08;;;;;;;17.62;9.10;;;;;;;22.26;53.54;100312.75;1752524;82;21660;-83
2023/10/22 09:02:26;;;;;;;12.82;7.80;;;;;;;22.29;53.53;100305.80;1720909;83;21328;-84
2023/10/22 09:05:29;;;;;;;22.32;9.53;;;;;;;22.06;54.53;100309.01;1725947;83;21348;-83
2023/10/22 09:08:52;;;;;;;18.70;9.28;;;;;;;22.29;53.70;100301.63;1764643;80;21802;-83
2023/10/22 09:12:03;;;;;;;20.68;9.40;;;;;;;22.54;53.15;100302.05;1703380;84;21877;-83
2023/10/22 09:15:08;;;;;;;16.27;9.20;;;;;;;22.82;52.17;100289.03;1774501;79;21252;-83
2023/10/22 09:18:15;;;;;;;19.35;9.85;;;;;;;22.73;52.25;100286.44;1765674;81;21275;-83
2023/10/22 09:21:21;;;;;;;16.95;8.88;;;;;;;22.84;52.08;100276.54;1764444;81;21886;-83
2023/10/22 09:24:26;;;;;;;17.00;8.93;;;;;;;22.94;51.92;100265.55;1700942;83;21340;-84
2023/10/22 09:27:34;;;;;;;13.28;8.00;;;;;;;23.05;51.92;100263.72;1736945;82;21370;-83
2023/10/22 09:30:40;;;;;;;12.33;8.30;;;;;;;23.09;52.25;100262.11;1790591;80;21814;-83
2023/10/22 09:33:48;;;;;;;13.18;8.83;;;;;;;23.09;52.34;100257.08;1715678;83;21635;-83
2023/10/22 09:37:00;;;;;;;19.52;10.95;;;;;;;23.35;51.79;100259.08;1777136;80;21950;-83
2023/10/22 09:40:05;;;;;;;32.30;16.55;;;;;;;23.48;51.42;100242.48;1785937;79;21260;-83
2023/10/22 09:43:05;;;;;;;29.92;16.57;;;;;;;23.59;50.92;100240.07;1758290;79;21882;-83
2023/10/22 09:46:04;;;;;;;38.65;18.30;;;;;;;23.62;50.66;100237.28;1779669;79;21288;-83
2023/10/22 09:49:09;;;;;;;46.33;23.10;;;;;;;23.76;50.63;100244.71;1767662;81;21621;-83
2023/10/22 09:52:15;;;;;;;43.58;22.35;;;;;;;23.67;50.56;100235.45;1790578;79;21311;-84
2023/10/22 09:55:21;;;;;;;33.40;15.63;;;;;;;23.87;50.14;100231.15;1791969;79;21267;-83
2023/10/22 09:58:27;;;;;;;18.40;10.10;;;;;;;23.99;50.05;100238.78;1798290;79;21276;-83
2023/10/22 10:01:32;;;;;;;16.30;8.38;;;;;;;23.76;50.47;100240.00;1800112;79;21326;-84
2023/10/22 10:04:40;;;;;;;15.70;7.78;;;;;;;23.89;50.30;100233.11;1732259;83;21293;-83
2023/10/22 10:07:47;;;;;;;13.25;6.75;;;;;;;23.71;51.04;100230.15;1800589;79;21307;-83
2023/10/22 10:10:54;;;;;;;14.58;7.70;;;;;;;23.85;50.90;100229.16;1727306;81;21314;-83
2023/10/22 10:14:00;;;;;;;10.35;6.22;;;;;;;24.10;50.37;100225.20;1731226;83;21237;-83
2023/10/22 10:17:08;;;;;;;10.53;6.80;;;;;;;24.34;49.73;100226.20;1723397;82;21335;-83
2023/10/22 10:20:39;;;;;;;12.03;7.03;;;;;;;24.01;50.34;100217.02;1724195;82;21296;-83
2023/10/22 10:23:53;;;;;;;13.43;6.83;;;;;;;24.17;50.14;100216.57;1725831;82;21325;-83
2023/10/22 10:27:11;;;;;;;10.48;6.92;;;;;;;23.86;50.92;100215.50;1723444;83;21276;-82
2023/10/22 10:30:23;;;;;;;18.37;7.80;;;;;;;24.22;50.24;100202.07;1726019;82;21301;-82
2023/10/22 10:33:29;;;;;;;20.57;7.55;;;;;;;24.27;50.23;100197.63;1735813;82;21308;-82
2023/10/22 10:36:34;;;;;;;14.93;6.17;;;;;;;24.25;50.43;100194.28;1732725;82;21370;-82
2023/10/22 10:39:50;;;;;;;14.05;7.30;;;;;;;24.25;50.55;100197.91;1723965;83;21890;-82
2023/10/22 10:42:56;;;;;;;9.50;6.47;;;;;;;24.46;49.87;100198.89;1699265;84;21852;-82
2023/10/22 10:46:32;;;;;;;9.33;6.03;;;;;;;24.37;50.26;100200.52;1761448;81;21296;-83
2023/10/22 10:50:10;;;;;;;13.13;5.85;;;;;;;24.49;50.15;100196.97;1750020;82;21316;-82
2023/10/22 10:53:12;;;;;;;10.95;5.37;;;;;;;24.57;49.95;100206.80;1732446;82;21300;-82
2023/10/22 10:56:19;;;;;;;13.98;5.50;;;;;;;24.78;49.13;100197.95;1800402;79;21864;-83
2023/10/22 10:59:42;;;;;;;8.95;6.15;;;;;;;24.63;49.52;100200.95;1800813;79;21817;-82
2023/10/22 11:02:49;;;;;;;9.85;6.15;;;;;;;24.71;49.46;100194.02;1767605;81;21326;-83
2023/10/22 11:05:56;;;;;;;12.18;6.95;;;;;;;24.54;49.69;100196.99;1767318;81;21651;-83
2023/10/22 11:09:03;;;;;;;11.78;6.35;;;;;;;24.72;49.15;100182.55;1695171;81;21970;-83
2023/10/22 11:12:10;;;;;;;9.70;6.62;;;;;;;25.01;48.66;100180.69;1797687;79;21291;-82
2023/10/22 11:15:16;;;;;;;9.35;6.90;;;;;;;25.13;48.34;100171.54;1777463;79;21295;-83
2023/10/22 11:18:22;;;;;;;13.18;7.03;;;;;;;25.08;48.29;100171.53;1789309;80;21913;-83
2023/10/22 11:21:28;;;;;;;10.95;6.87;;;;;;;24.93;48.59;100172.83;1722393;83;21965;-83
2023/10/22 11:24:39;;;;;;;15.20;7.60;;;;;;;24.74;49.36;100172.47;1727215;83;21690;-82
2023/10/22 11:27:47;;;;;;;11.05;7.42;;;;;;;24.83;49.10;100164.41;1799038;79;21287;-83
2023/10/22 11:30:56;;;;;;;9.13;6.70;;;;;;;24.92;49.00;100169.75;1787343;79;21265;-83
2023/10/22 11:34:00;;;;;;;16.23;8.53;;;;;;;25.27;48.42;100172.41;1767572;81;21268;-83
2023/10/22 11:37:07;;;;;;;13.38;7.42;;;;;;;25.10;48.56;100170.68;1788212;79;21293;-82
2023/10/22 11:40:39;;;;;;;14.18;8.28;;;;;;;25.23;48.31;100162.32;1800938;79;21701;-83
2023/10/22 11:43:51;;;;;;;10.88;7.37;;;;;;;25.32;48.25;100154.23;1772241;79;21261;-83
2023/10/22 11:46:56;;;;;;;12.45;7.35;;;;;;;25.06;48.75;100149.92;1700282;81;21331;-83
2023/10/22 11:50:04;;;;;;;18.07;7.92;;;;;;;25.11;48.65;100156.97;1730973;82;21943;-82
2023/10/22 11:53:09;;;;;;;16.77;8.20;;;;;;;25.28;48.50;100156.73;1695300;84;21294;-83
2023/10/22 11:56:15;;;;;;;26.52;8.50;;;;;;;25.46;48.21;100163.77;1731299;83;21373;-82
2023/10/22 11:59:21;;;;;;;16.48;8.38;;;;;;;25.46;48.04;100163.20;1707205;83;21849;-83
2023/10/22 12:02:26;;;;;;;14.33;7.65;;;;;;;25.63;47.51;100163.47;1794626;80;21323;-83
2023/10/22 12:05:32;;;;;;;11.48;7.50;;;;;;;25.38;48.21;100159.54;1727675;83;21322;-82
2023/10/22 12:08:38;;;;;;;13.68;8.35;;;;;;;25.68;47.54;100161.51;1729578;83;21367;-83
2023/10/22 12:11:43;;;;;;;14.95;7.95;;;;;;;25.54;47.76;100160.39;1728213;83;21705;-82
2023/10/22 12:14:49;;;;;;;16.95;9.00;;;;;;;25.77;47.30;100166.59;1741044;81;22193;-81
2023/10/22 12:17:55;;;;;;;19.35;7.95;;;;;;;25.69;47.25;100168.81;1799207;79;21316;-83
2023/10/22 12:21:04;;;;;;;16.40;8.50;;;;;;;25.44;47.78;100163.18;1790866;79;21300;-84
2023/10/22 12:24:09;;;;;;;16.67;9.18;;;;;;;25.70;47.47;100156.48;1757623;81;21344;-84
2023/10/22 12:27:16;;;;;;;16.40;9.20;;;;;;;25.80;47.57;100153.44;1693560;81;21305;-82
2023/10/22 12:30:23;;;;;;;21.70;8.68;;;;;;;26.04;47.06;100154.52;1721305;83;21936;-82
2023/10/22 12:33:30;;;;;;;20.80;9.03;;;;;;;26.01;47.20;100153.68;1702752;84;21319;-83
2023/10/22 12:36:36;;;;;;;17.20;9.08;;;;;;;26.08;47.10;100145.84;1714585;83;21356;-82
2023/10/22 12:39:42;;;;;;;20.23;10.18;;;;;;;26.40;46.50;100133.42;1727058;82;21298;-83
2023/10/22 12:42:48;;;;;;;19.73;9.38;;;;;;;26.20;46.83;100135.70;1729282;82;21319;-83
2023/10/22 12:45:53;;;;;;;19.45;9.83;;;;;;;26.50;46.32;100126.41;1737040;82;21304;-83
2023/10/22 12:48:59;;;;;;;16.42;9.53;;;;;;;26.16;46.92;100128.98;1736904;82;21335;-83
2023/10/22 12:52:05;;;;;;;18.52;8.48;;;;;;;26.11;47.10;100134.07;1736719;82;21337;-83
2023/10/22 12:55:12;;;;;;;19.85;9.43;;;;;;;26.00;47.38;100133.79;1730551;83;21288;-84
2023/10/22 12:58:19;;;;;;;21.02;9.45;;;;;;;25.98;47.70;100126.24;1787735;80;21312;-83
2023/10/22 13:01:25;;;;;;;20.00;9.25;;;;;;;26.29;47.19;100128.95;1696467;82;21370;-83
2023/10/22 13:04:31;;;;;;;24.37;10.58;;;;;;;26.45;47.01;100125.03;1696436;84;21323;-83
2023/10/22 13:07:37;;;;;;;17.62;9.30;;;;;;;26.43;46.95;100124.45;1725230;83;21947;-83
2023/10/22 13:10:57;;;;;;;23.55;8.95;;;;;;;26.53;46.89;100120.20;1799249;79;21280;-82
2023/10/22 13:14:03;;;;;;;23.02;10.10;;;;;;;26.65;46.77;100129.14;1723026;83;21311;-83
2023/10/22 13:17:09;;;;;;;19.67;9.83;;;;;;;26.51;46.86;100129.48;1694322;83;21327;-83
2023/10/22 13:20:15;;;;;;;24.65;10.48;;;;;;;26.51;46.78;100115.46;1703160;84;21870;-83
2023/10/22 13:23:21;;;;;;;20.72;9.90;;;;;;;26.28;47.28;100114.11;1704176;84;21344;-82
2023/10/22 13:26:28;;;;;;;22.90;10.13;;;;;;;26.34;47.05;100100.91;1703949;84;21308;-82
2023/10/22 13:29:34;;;;;;;25.80;10.78;;;;;;;26.31;47.10;100102.89;1702892;84;21352;-82
2023/10/22 13:32:38;;;;;;;18.12;9.58;;;;;;;26.06;47.51;100099.59;1702912;84;21351;-83
2023/10/22 13:35:44;;;;;;;19.23;10.10;;;;;;;26.06;47.46;100086.41;1760987;79;21951;-84
2023/10/22 13:38:49;;;;;;;23.80;10.88;;;;;;;26.16;47.18;100087.80;1782307;80;21268;-82
2023/10/22 13:41:57;;;;;;;19.40;10.18;;;;;;;26.14;47.19;100095.64;1763410;80;21284;-84
2023/10/22 13:45:03;;;;;;;25.30;10.30;;;;;;;26.04;47.39;100088.67;1755718;80;21289;-84
2023/10/22 13:48:09;;;;;;;17.48;9.60;;;;;;;26.05;47.28;100097.91;1787345;79;21821;-84
2023/10/22 13:51:15;;;;;;;26.68;10.03;;;;;;;25.97;47.40;100100.72;1776566;79;21372;-82
2023/10/22 13:54:21;;;;;;;22.98;10.45;;;;;;;25.83;47.54;100101.03;1756476;81;21292;-83
2023/10/22 13:57:27;;;;;;;20.70;9.85;;;;;;;25.76;47.81;100108.89;1756447;81;21796;-82
2023/10/22 14:00:35;;;;;;;15.18;8.75;;;;;;;25.64;48.00;100119.80;1688721;81;21320;-83
2023/10/22 14:03:42;;;;;;;21.02;10.03;;;;;;;25.16;49.08;100112.76;1698828;84;21875;-83
2023/10/22 14:06:41;;;;;;;27.62;9.30;;;;;;;25.41;48.61;100109.16;1766850;79;21300;-83
2023/10/22 14:09:47;;;;;;;19.52;10.25;;;;;;;24.95;49.44;100102.07;1767063;81;21304;-82
2023/10/22 14:12:54;;;;;;;18.48;8.50;;;;;;;25.11;49.19;100095.41;1769527;80;21264;-82